Time;durP1;ratioP1;P1;durP2;ratioP2;P2;SDS_P1;SDS_P2;PMS_P1;PMS_P2;Temp;Humidity;BMP_temperature;BMP_pressure;BME280_temperature;BME280_humidity;BME280_pressure;Samples;Min_cycle;Max_cycle;Signal;HPM_P1;HPM_P2
2022/07/09 00:02:10;;;;;;;10.27;7.75;;;;;;;;;;4176698;34;20117;-73
2022/07/09 00:34:02;;;;;;;12.68;7.80;;;;;;;;;;4753866;28;20083;-69
2022/07/09 00:36:28;;;;;;;9.82;7.50;;;;;;;;;;4177971;34;20097;-69
2022/07/09 00:38:54;;;;;;;11.02;8.43;;;;;;;;;;4177973;34;20117;-72
2022/07/09 00:41:20;;;;;;;17.12;7.78;;;;;;;;;;4178174;34;20227;-69
2022/07/09 00:43:50;;;;;;;10.52;7.87;;;;;;;;;;4177981;34;20114;-71
2022/07/09 00:46:17;;;;;;;11.63;8.07;;;;;;;;;;4154184;34;20125;-70
2022/07/09 00:48:43;;;;;;;22.50;8.48;;;;;;;;;;4177812;34;20126;-70
2022/07/09 00:51:11;;;;;;;9.57;7.57;;;;;;;;;;4177846;34;20122;-70
2022/07/09 00:53:38;;;;;;;13.60;9.57;;;;;;;;;;4165212;34;20504;-71
2022/07/09 00:56:04;;;;;;;14.40;8.73;;;;;;;;;;4165066;34;20134;-70
2022/07/09 00:58:31;;;;;;;14.30;8.43;;;;;;;;;;4164695;34;20110;-69
2022/07/09 01:00:57;;;;;;;22.05;8.95;;;;;;;;;;4165292;34;20432;-71
2022/07/09 01:03:23;;;;;;;10.90;8.05;;;;;;;;;;4165190;34;20122;-70
2022/07/09 01:05:49;;;;;;;12.00;7.57;;;;;;;;;;4164937;34;20530;-71
2022/07/09 01:08:15;;;;;;;19.08;7.75;;;;;;;;;;4165076;34;20102;-70
2022/07/09 01:10:42;;;;;;;10.50;6.93;;;;;;;;;;4177876;34;20139;-71
2022/07/09 01:13:08;;;;;;;11.75;7.15;;;;;;;;;;4177863;34;20107;-70
2022/07/09 01:15:34;;;;;;;12.27;7.32;;;;;;;;;;4177565;34;20122;-70
2022/07/09 01:18:00;;;;;;;9.50;6.68;;;;;;;;;;4165082;34;20566;-70
2022/07/09 01:20:29;;;;;;;11.32;6.95;;;;;;;;;;4164925;34;20202;-70
2022/07/09 01:22:55;;;;;;;11.15;7.60;;;;;;;;;;4177453;34;20110;-70
2022/07/09 01:25:36;;;;;;;11.07;7.12;;;;;;;;;;4153750;34;20126;-70
2022/07/09 01:28:05;;;;;;;14.87;7.90;;;;;;;;;;4177448;34;20098;-70
2022/07/09 01:30:32;;;;;;;11.15;7.62;;;;;;;;;;4153864;34;20459;-70
2022/07/09 01:32:58;;;;;;;12.07;8.20;;;;;;;;;;4177450;34;20436;-70
2022/07/09 01:35:24;;;;;;;13.45;7.68;;;;;;;;;;4177250;34;20191;-70
2022/07/09 01:37:51;;;;;;;9.80;6.68;;;;;;;;;;4177292;34;20549;-70
2022/07/09 01:40:17;;;;;;;11.05;7.00;;;;;;;;;;4153551;34;20106;-70
2022/07/09 01:42:43;;;;;;;19.85;7.50;;;;;;;;;;4164642;34;20142;-70
2022/07/09 01:45:09;;;;;;;22.08;8.13;;;;;;;;;;4177519;34;20119;-70
2022/07/09 01:47:35;;;;;;;15.18;7.28;;;;;;;;;;4177488;34;20117;-70
2022/07/09 01:50:01;;;;;;;14.60;7.03;;;;;;;;;;4164921;34;20107;-70
2022/07/09 01:52:29;;;;;;;9.15;6.10;;;;;;;;;;4177232;34;20119;-71
2022/07/09 01:54:55;;;;;;;11.70;6.32;;;;;;;;;;4164543;34;20132;-71
2022/07/09 01:57:21;;;;;;;13.93;6.62;;;;;;;;;;4164481;34;20613;-71
2022/07/09 01:59:47;;;;;;;12.57;7.43;;;;;;;;;;4177126;34;20119;-71
2022/07/09 02:02:13;;;;;;;14.27;7.22;;;;;;;;;;4177261;34;20114;-71
2022/07/09 02:04:39;;;;;;;11.70;5.70;;;;;;;;;;4177401;34;20113;-71
2022/07/09 02:07:05;;;;;;;10.82;6.87;;;;;;;;;;4164405;34;20562;-70
2022/07/09 02:09:31;;;;;;;13.40;5.70;;;;;;;;;;4163667;34;20113;-71
2022/07/09 02:11:57;;;;;;;17.35;6.78;;;;;;;;;;4176737;34;20483;-70
2022/07/09 02:14:23;;;;;;;15.40;5.50;;;;;;;;;;4177097;34;20115;-70
2022/07/09 02:16:49;;;;;;;9.80;5.72;;;;;;;;;;4177016;34;20126;-70
2022/07/09 02:19:15;;;;;;;7.60;5.40;;;;;;;;;;4177346;34;20110;-70
2022/07/09 02:21:41;;;;;;;8.52;4.97;;;;;;;;;;4153343;34;20463;-70
2022/07/09 02:24:07;;;;;;;9.43;5.85;;;;;;;;;;4177044;34;20130;-70
2022/07/09 02:26:33;;;;;;;10.40;5.53;;;;;;;;;;4177116;34;20121;-71
2022/07/09 02:28:59;;;;;;;8.07;5.25;;;;;;;;;;4164325;34;20209;-71
2022/07/09 02:31:26;;;;;;;9.27;5.72;;;;;;;;;;4164504;34;20534;-71
2022/07/09 02:33:53;;;;;;;7.70;4.87;;;;;;;;;;4164382;34;20110;-71
2022/07/09 02:36:19;;;;;;;11.75;5.45;;;;;;;;;;4177040;34;20102;-71
2022/07/09 02:38:45;;;;;;;7.00;5.20;;;;;;;;;;4177061;34;20210;-71
2022/07/09 02:41:11;;;;;;;10.82;5.50;;;;;;;;;;4176943;34;20715;-70
2022/07/09 02:43:38;;;;;;;9.50;5.62;;;;;;;;;;4182697;34;20107;-71
2022/07/09 02:46:04;;;;;;;7.72;5.53;;;;;;;;;;4184189;34;20142;-71
2022/07/09 02:48:31;;;;;;;12.15;5.55;;;;;;;;;;4161510;34;20119;-71
2022/07/09 02:50:57;;;;;;;6.90;4.62;;;;;;;;;;4183169;34;20086;-71
2022/07/09 02:53:23;;;;;;;7.45;4.62;;;;;;;;;;4181061;34;20103;-71
2022/07/09 02:55:49;;;;;;;9.23;4.70;;;;;;;;;;4152658;34;20114;-71
2022/07/09 02:58:15;;;;;;;11.52;5.20;;;;;;;;;;4176535;34;20447;-71
2022/07/09 03:00:41;;;;;;;7.18;4.80;;;;;;;;;;4176613;34;20632;-71
2022/07/09 03:03:08;;;;;;;11.65;4.82;;;;;;;;;;4163864;34;20215;-71
2022/07/09 03:05:34;;;;;;;9.57;4.18;;;;;;;;;;4176482;34;20118;-71
2022/07/09 03:08:01;;;;;;;11.10;4.60;;;;;;;;;;4163901;34;20158;-71
2022/07/09 03:10:27;;;;;;;9.63;3.97;;;;;;;;;;4164015;34;20173;-71
2022/07/09 03:12:53;;;;;;;7.87;4.10;;;;;;;;;;4163555;34;20475;-71
2022/07/09 03:15:19;;;;;;;10.05;3.97;;;;;;;;;;4176373;34;20113;-70
2022/07/09 03:17:45;;;;;;;6.07;3.90;;;;;;;;;;4164016;34;20137;-71
2022/07/09 03:20:12;;;;;;;10.65;4.10;;;;;;;;;;4163828;34;20516;-70
2022/07/09 03:22:38;;;;;;;4.15;3.75;;;;;;;;;;4165272;34;20451;-70
2022/07/09 03:25:05;;;;;;;6.37;3.78;;;;;;;;;;4178420;34;20462;-71
2022/07/09 03:27:31;;;;;;;8.85;3.12;;;;;;;;;;4178693;34;20202;-71
2022/07/09 03:29:57;;;;;;;4.53;3.65;;;;;;;;;;4154695;34;20121;-70
2022/07/09 03:32:24;;;;;;;5.25;3.25;;;;;;;;;;4165966;34;20113;-71
2022/07/09 03:34:52;;;;;;;4.68;2.90;;;;;;;;;;4165538;34;20188;-70
2022/07/09 03:37:18;;;;;;;2.83;2.40;;;;;;;;;;4178470;34;20117;-70
2022/07/09 03:39:47;;;;;;;4.75;4.00;;;;;;;;;;4178465;34;20119;-71
2022/07/09 03:42:13;;;;;;;3.70;3.03;;;;;;;;;;4178684;34;20117;-70
2022/07/09 03:44:40;;;;;;;8.50;3.78;;;;;;;;;;4165727;34;20118;-70
2022/07/09 03:47:06;;;;;;;2.25;1.87;;;;;;;;;;4178572;34;20130;-70
2022/07/09 03:49:33;;;;;;;6.47;3.40;;;;;;;;;;4165509;34;20198;-71
2022/07/09 03:51:59;;;;;;;5.05;3.00;;;;;;;;;;4166009;34;20177;-70
2022/07/09 03:54:25;;;;;;;6.60;4.00;;;;;;;;;;4165811;34;20576;-70
2022/07/09 03:56:51;;;;;;;6.22;2.85;;;;;;;;;;4178309;34;20119;-70
2022/07/09 03:59:17;;;;;;;7.07;3.70;;;;;;;;;;4165473;34;20115;-70
2022/07/09 04:01:44;;;;;;;5.90;3.70;;;;;;;;;;4165687;34;20136;-71
2022/07/09 04:04:10;;;;;;;6.93;3.40;;;;;;;;;;4165532;34;20118;-70
2022/07/09 04:06:36;;;;;;;7.18;3.55;;;;;;;;;;4178157;34;20222;-71
2022/07/09 04:09:04;;;;;;;4.82;3.53;;;;;;;;;;4178151;34;20086;-70
2022/07/09 04:11:34;;;;;;;5.90;3.17;;;;;;;;;;4154259;34;20130;-70
2022/07/09 04:14:03;;;;;;;4.85;3.12;;;;;;;;;;4165321;34;20566;-70
2022/07/09 04:16:29;;;;;;;8.50;3.85;;;;;;;;;;4165409;34;20199;-71
2022/07/09 04:18:55;;;;;;;5.55;3.67;;;;;;;;;;4154133;34;20218;-70
2022/07/09 04:21:21;;;;;;;4.35;3.92;;;;;;;;;;4178053;34;20153;-70
2022/07/09 04:23:51;;;;;;;5.25;3.30;;;;;;;;;;4165470;34;20122;-71
2022/07/09 04:26:20;;;;;;;5.93;3.83;;;;;;;;;;4153995;34;20121;-70
2022/07/09 04:28:46;;;;;;;10.65;3.30;;;;;;;;;;4178220;34;20215;-70
2022/07/09 04:31:12;;;;;;;4.68;3.60;;;;;;;;;;4177957;34;20130;-71
2022/07/09 04:33:38;;;;;;;5.62;3.62;;;;;;;;;;4177153;34;20129;-71
2022/07/09 04:36:05;;;;;;;4.60;3.70;;;;;;;;;;4178005;34;20130;-71
2022/07/09 04:38:31;;;;;;;6.18;3.42;;;;;;;;;;4177989;34;20130;-70
2022/07/09 04:40:57;;;;;;;5.70;3.03;;;;;;;;;;4165156;34;20140;-70
2022/07/09 04:43:23;;;;;;;6.00;3.28;;;;;;;;;;4177909;34;20529;-71
2022/07/09 04:45:49;;;;;;;3.70;3.17;;;;;;;;;;4177895;34;20126;-71
2022/07/09 04:48:15;;;;;;;8.57;3.67;;;;;;;;;;4177713;34;20122;-70
2022/07/09 04:50:41;;;;;;;4.07;2.97;;;;;;;;;;4153858;34;20103;-71
2022/07/09 04:53:07;;;;;;;5.47;3.25;;;;;;;;;;4177963;34;20222;-71
2022/07/09 04:55:33;;;;;;;8.48;3.58;;;;;;;;;;4177689;34;20305;-71
2022/07/09 04:57:59;;;;;;;5.97;3.55;;;;;;;;;;4177952;34;20125;-71
2022/07/09 05:00:25;;;;;;;7.90;4.10;;;;;;;;;;4165000;34;20423;-71
2022/07/09 05:02:51;;;;;;;7.25;3.42;;;;;;;;;;4177639;34;20126;-71
2022/07/09 05:05:21;;;;;;;4.97;3.55;;;;;;;;;;4177814;34;20095;-71
2022/07/09 05:07:47;;;;;;;5.18;3.47;;;;;;;;;;4177691;34;20102;-71
2022/07/09 05:10:13;;;;;;;4.80;3.12;;;;;;;;;;4178069;34;20499;-71
2022/07/09 05:12:40;;;;;;;5.35;3.08;;;;;;;;;;4177849;34;20125;-71
2022/07/09 05:15:06;;;;;;;5.03;3.75;;;;;;;;;;4177811;34;20137;-71
2022/07/09 05:17:36;;;;;;;9.50;3.70;;;;;;;;;;4177832;34;20098;-71
2022/07/09 05:20:07;;;;;;;5.50;3.60;;;;;;;;;;4177627;34;20211;-71
2022/07/09 05:22:35;;;;;;;6.10;3.70;;;;;;;;;;4165041;34;20546;-71
2022/07/09 05:25:01;;;;;;;6.87;3.92;;;;;;;;;;4164687;34;20106;-70
2022/07/09 05:27:28;;;;;;;8.45;4.05;;;;;;;;;;4177680;34;20119;-70
2022/07/09 05:29:54;;;;;;;5.95;2.95;;;;;;;;;;4153748;34;20145;-70
2022/07/09 05:32:20;;;;;;;5.95;2.90;;;;;;;;;;4164836;34;20225;-70
2022/07/09 05:34:46;;;;;;;3.85;3.20;;;;;;;;;;4164661;34;20115;-70
2022/07/09 05:37:12;;;;;;;5.57;3.60;;;;;;;;;;4153500;34;20110;-70
2022/07/09 05:39:38;;;;;;;7.10;3.70;;;;;;;;;;4153244;34;20107;-70
2022/07/09 05:42:05;;;;;;;4.12;3.40;;;;;;;;;;4177379;34;20223;-71
2022/07/09 05:44:31;;;;;;;6.80;3.95;;;;;;;;;;4177085;34;20114;-70
2022/07/09 05:46:57;;;;;;;4.93;3.70;;;;;;;;;;4177583;34;20564;-70
2022/07/09 05:49:23;;;;;;;9.10;4.10;;;;;;;;;;4164495;34;20208;-70
2022/07/09 05:51:49;;;;;;;10.70;4.10;;;;;;;;;;4177353;34;20129;-70
2022/07/09 05:54:15;;;;;;;6.32;4.15;;;;;;;;;;4177086;34;20483;-70
2022/07/09 05:56:41;;;;;;;6.82;3.75;;;;;;;;;;4177267;34;20133;-69
2022/07/09 05:59:07;;;;;;;7.00;3.80;;;;;;;;;;4153357;34;20451;-70
2022/07/09 06:01:38;;;;;;;5.15;3.67;;;;;;;;;;4177181;34;20110;-70
2022/07/09 06:04:05;;;;;;;5.97;3.37;;;;;;;;;;4177477;34;20121;-70
2022/07/09 06:06:31;;;;;;;6.07;4.20;;;;;;;;;;4164764;34;20101;-69
2022/07/09 06:08:57;;;;;;;4.47;3.65;;;;;;;;;;4164557;34;20443;-70
2022/07/09 06:11:23;;;;;;;4.53;3.83;;;;;;;;;;4164570;34;20291;-70
2022/07/09 06:13:49;;;;;;;7.37;3.37;;;;;;;;;;4177034;34;20201;-70
2022/07/09 06:16:15;;;;;;;4.22;3.70;;;;;;;;;;4177154;34;20106;-70
2022/07/09 06:18:41;;;;;;;8.10;3.60;;;;;;;;;;4164301;34;20534;-71
2022/07/09 06:21:07;;;;;;;5.47;3.95;;;;;;;;;;4177266;34;20137;-71
2022/07/09 06:23:33;;;;;;;5.45;3.70;;;;;;;;;;4176930;34;20128;-70
2022/07/09 06:25:59;;;;;;;12.13;3.97;;;;;;;;;;4177144;34;20142;-70
2022/07/09 06:28:25;;;;;;;6.95;3.30;;;;;;;;;;4176813;34;20198;-70
2022/07/09 06:30:51;;;;;;;7.35;3.75;;;;;;;;;;4164178;34;20216;-70
2022/07/09 06:33:17;;;;;;;7.22;3.70;;;;;;;;;;4176825;34;20094;-71
2022/07/09 06:35:43;;;;;;;5.00;3.78;;;;;;;;;;4176812;34;20182;-71
2022/07/09 06:38:09;;;;;;;9.05;4.12;;;;;;;;;;4176856;34;20556;-71
2022/07/09 06:40:35;;;;;;;7.87;3.45;;;;;;;;;;4176704;34;20122;-71
2022/07/09 06:43:01;;;;;;;6.82;3.75;;;;;;;;;;4176681;34;20214;-71
2022/07/09 06:45:27;;;;;;;8.18;3.60;;;;;;;;;;4164024;34;20129;-73
2022/07/09 06:47:53;;;;;;;4.82;3.62;;;;;;;;;;4176631;34;20120;-71
2022/07/09 06:50:19;;;;;;;7.90;3.80;;;;;;;;;;4176646;34;20623;-71
2022/07/09 06:52:46;;;;;;;6.45;3.50;;;;;;;;;;4176704;34;20516;-71
2022/07/09 06:55:12;;;;;;;5.35;3.58;;;;;;;;;;4176559;34;20181;-71
2022/07/09 06:57:38;;;;;;;6.90;3.60;;;;;;;;;;4165437;34;20106;-71
2022/07/09 07:00:05;;;;;;;6.95;3.90;;;;;;;;;;4178941;34;20120;-71
2022/07/09 07:02:31;;;;;;;4.60;3.75;;;;;;;;;;4178735;34;20115;-71
2022/07/09 07:04:57;;;;;;;6.18;4.10;;;;;;;;;;4165946;34;20110;-71
2022/07/09 07:07:23;;;;;;;8.10;4.22;;;;;;;;;;4178810;34;20190;-71
2022/07/09 07:09:49;;;;;;;5.72;4.25;;;;;;;;;;4166081;34;20132;-71
2022/07/09 07:12:15;;;;;;;4.68;3.55;;;;;;;;;;4178608;34;20130;-71
2022/07/09 07:14:41;;;;;;;5.37;3.80;;;;;;;;;;4154678;34;20141;-71
2022/07/09 07:17:07;;;;;;;4.25;3.83;;;;;;;;;;4166023;34;20118;-71
2022/07/09 07:19:33;;;;;;;6.07;3.85;;;;;;;;;;4166224;34;20125;-71
2022/07/09 07:21:59;;;;;;;5.82;3.95;;;;;;;;;;4178642;34;20138;-71
2022/07/09 07:24:25;;;;;;;3.28;2.28;;;;;;;;;;4165589;34;20129;-71
2022/07/09 07:26:51;;;;;;;4.95;3.22;;;;;;;;;;4178591;34;20126;-71
2022/07/09 07:29:17;;;;;;;8.98;4.05;;;;;;;;;;4178472;34;20107;-71
2022/07/09 07:31:43;;;;;;;4.82;3.62;;;;;;;;;;4166152;34;20172;-71
2022/07/09 07:34:09;;;;;;;4.80;4.07;;;;;;;;;;4154269;34;20118;-71
2022/07/09 07:36:35;;;;;;;5.00;4.07;;;;;;;;;;4178513;34;20187;-70
2022/07/09 07:39:01;;;;;;;6.25;3.97;;;;;;;;;;4178451;34;20099;-71
2022/07/09 07:41:28;;;;;;;7.18;3.70;;;;;;;;;;4165692;34;20118;-71
2022/07/09 07:43:54;;;;;;;4.47;3.60;;;;;;;;;;4154487;34;20108;-71
2022/07/09 07:46:20;;;;;;;1.42;1.33;;;;;;;;;;4165633;34;20126;-71
2022/07/09 07:48:46;;;;;;;5.68;2.78;;;;;;;;;;4165794;34;20163;-72
2022/07/09 07:51:12;;;;;;;5.55;4.50;;;;;;;;;;4178306;34;20118;-71
2022/07/09 07:53:38;;;;;;;5.90;4.47;;;;;;;;;;4178403;34;20118;-71
2022/07/09 07:56:06;;;;;;;8.88;4.68;;;;;;;;;;4178319;34;20217;-71
2022/07/09 07:58:32;;;;;;;6.37;3.55;;;;;;;;;;4165482;34;20213;-72
2022/07/09 08:00:58;;;;;;;4.93;3.83;;;;;;;;;;4165543;34;20223;-71
2022/07/09 08:03:24;;;;;;;3.05;1.70;;;;;;;;;;4165523;34;20126;-67
2022/07/09 08:05:50;;;;;;;7.43;4.68;;;;;;;;;;4178311;34;20637;-73
2022/07/09 08:08:18;;;;;;;5.62;2.45;;;;;;;;;;4153388;34;20114;-72
2022/07/09 08:10:45;;;;;;;8.40;4.22;;;;;;;;;;4154058;34;20122;-73
2022/07/09 08:13:12;;;;;;;6.78;4.80;;;;;;;;;;4178119;34;20130;-73
2022/07/09 08:15:38;;;;;;;5.37;4.12;;;;;;;;;;4178160;34;20129;-70
2022/07/09 08:18:05;;;;;;;6.72;4.00;;;;;;;;;;4154067;34;20190;-71
2022/07/09 08:20:31;;;;;;;5.55;4.68;;;;;;;;;;4178160;34;20541;-72
2022/07/09 08:22:57;;;;;;;10.77;4.80;;;;;;;;;;4178077;34;20593;-71
2022/07/09 08:25:24;;;;;;;6.93;4.78;;;;;;;;;;4177961;34;20111;-72
2022/07/09 08:27:50;;;;;;;5.95;4.47;;;;;;;;;;4178169;34;20111;-71
2022/07/09 08:30:16;;;;;;;8.18;4.78;;;;;;;;;;4165499;34;20106;-71
2022/07/09 08:32:42;;;;;;;12.27;4.87;;;;;;;;;;4178262;34;20140;-69
2022/07/09 08:35:08;;;;;;;6.50;4.82;;;;;;;;;;4164932;34;20178;-72
2022/07/09 08:37:34;;;;;;;5.15;4.65;;;;;;;;;;4165386;34;20199;-66
2022/07/09 08:40:02;;;;;;;5.80;4.50;;;;;;;;;;4177934;34;20106;-67
2022/07/09 08:42:28;;;;;;;6.82;5.12;;;;;;;;;;4165022;34;20612;-67
2022/07/09 08:44:54;;;;;;;10.18;5.12;;;;;;;;;;4177859;34;20455;-67
2022/07/09 08:47:20;;;;;;;9.63;5.62;;;;;;;;;;4177759;34;20134;-67
2022/07/09 08:49:47;;;;;;;4.45;3.70;;;;;;;;;;4154103;34;20095;-67
2022/07/09 08:52:13;;;;;;;7.07;4.18;;;;;;;;;;4165491;34;20118;-67
2022/07/09 08:54:41;;;;;;;5.28;4.12;;;;;;;;;;4165183;34;20464;-67
2022/07/09 08:57:07;;;;;;;6.90;4.40;;;;;;;;;;4165306;34;20118;-67
2022/07/09 08:59:34;;;;;;;6.75;4.90;;;;;;;;;;4177874;34;20211;-67
2022/07/09 09:02:08;;;;;;;7.45;3.10;;;;;;;;;;4177722;34;20126;-67
2022/07/09 09:04:39;;;;;;;5.73;3.60;;;;;;;;;;4165114;34;20158;-68
2022/07/09 09:07:18;;;;;;;12.02;4.50;;;;;;;;;;4177677;34;20431;-67
2022/07/09 09:09:45;;;;;;;10.48;4.75;;;;;;;;;;4177531;34;20198;-67
2022/07/09 09:12:12;;;;;;;17.48;7.80;;;;;;;;;;4177809;34;20128;-67
2022/07/09 09:14:38;;;;;;;18.02;5.95;;;;;;;;;;4165283;34;20103;-67
2022/07/09 09:17:11;;;;;;;17.92;6.18;;;;;;;;;;4177680;34;20134;-67
2022/07/09 09:19:40;;;;;;;14.98;6.05;;;;;;;;;;4177332;34;20200;-67
2022/07/09 09:22:06;;;;;;;11.18;5.43;;;;;;;;;;4164901;34;20105;-67
2022/07/09 09:24:34;;;;;;;18.58;5.93;;;;;;;;;;4177511;34;20448;-67
2022/07/09 09:27:00;;;;;;;12.77;5.22;;;;;;;;;;4177533;34;20125;-67
2022/07/09 09:29:27;;;;;;;29.08;8.40;;;;;;;;;;4164953;34;20110;-67
2022/07/09 09:31:53;;;;;;;22.02;8.05;;;;;;;;;;4177482;34;20095;-67
2022/07/09 09:34:19;;;;;;;22.37;7.62;;;;;;;;;;4177498;34;20169;-67
2022/07/09 09:36:47;;;;;;;14.20;6.95;;;;;;;;;;4177696;34;20237;-67
2022/07/09 09:39:14;;;;;;;14.90;6.37;;;;;;;;;;4177424;34;20219;-66
2022/07/09 09:41:42;;;;;;;17.70;6.72;;;;;;;;;;4177399;34;20633;-67
2022/07/09 09:44:09;;;;;;;17.75;5.65;;;;;;;;;;4153567;34;20185;-67
2022/07/09 09:46:39;;;;;;;10.73;5.75;;;;;;;;;;4177554;34;20117;-67
2022/07/09 09:49:09;;;;;;;12.32;4.93;;;;;;;;;;4177207;34;20205;-66
2022/07/09 09:51:59;;;;;;;14.65;5.40;;;;;;;;;;4177330;34;20486;-67
2022/07/09 09:54:25;;;;;;;15.38;6.15;;;;;;;;;;4169955;34;20118;-67
2022/07/09 09:56:52;;;;;;;19.40;6.80;;;;;;;;;;4177189;34;20110;-66
2022/07/09 09:59:18;;;;;;;16.08;6.97;;;;;;;;;;4177390;34;20130;-67
2022/07/09 10:01:44;;;;;;;17.50;8.43;;;;;;;;;;4164593;34;20137;-67
2022/07/09 10:04:11;;;;;;;16.90;7.32;;;;;;;;;;4164506;34;20142;-67
2022/07/09 10:06:37;;;;;;;9.15;5.22;;;;;;;;;;4177176;34;20091;-67
2022/07/09 10:09:05;;;;;;;8.55;5.50;;;;;;;;;;4176990;34;20614;-67
2022/07/09 10:11:44;;;;;;;12.35;5.87;;;;;;;;;;4177274;34;20125;-67
2022/07/09 10:14:34;;;;;;;15.55;5.85;;;;;;;;;;4177172;34;20541;-67
2022/07/09 10:17:11;;;;;;;9.07;5.55;;;;;;;;;;4177111;34;20436;-67
2022/07/09 10:19:37;;;;;;;16.75;4.82;;;;;;;;;;4164536;34;20132;-67
2022/07/09 10:22:03;;;;;;;7.78;4.85;;;;;;;;;;4177091;34;20197;-67
2022/07/09 10:24:29;;;;;;;13.85;5.07;;;;;;;;;;4176905;34;20211;-67
2022/07/09 10:27:07;;;;;;;13.52;4.70;;;;;;;;;;4176951;34;20154;-67
2022/07/09 10:29:34;;;;;;;11.48;4.93;;;;;;;;;;4176818;34;20118;-67
2022/07/09 10:32:01;;;;;;;15.45;5.18;;;;;;;;;;4177924;34;20125;-67
2022/07/09 10:34:58;;;;;;;6.43;4.82;;;;;;;;;;4178798;34;20513;-67
2022/07/09 10:37:43;;;;;;;11.88;5.65;;;;;;;;;;4179266;34;20115;-67
2022/07/09 10:40:10;;;;;;;10.82;4.93;;;;;;;;;;4166146;34;20460;-67
2022/07/09 10:42:36;;;;;;;12.35;5.20;;;;;;;;;;4178860;34;20497;-67
2022/07/09 10:45:04;;;;;;;8.38;5.15;;;;;;;;;;4178817;34;20121;-67
2022/07/09 10:47:39;;;;;;;9.13;5.95;;;;;;;;;;4166182;34;20103;-67
2022/07/09 10:50:05;;;;;;;14.73;5.05;;;;;;;;;;4178746;34;20149;-67
2022/07/09 10:52:31;;;;;;;9.80;6.72;;;;;;;;;;4179101;34;20113;-67
2022/07/09 10:54:57;;;;;;;17.15;7.32;;;;;;;;;;4178876;34;20134;-67
2022/07/09 10:57:23;;;;;;;13.20;6.35;;;;;;;;;;4178657;34;20230;-67
2022/07/09 10:59:49;;;;;;;9.55;6.28;;;;;;;;;;4178711;34;20544;-67
2022/07/09 11:02:22;;;;;;;14.45;5.93;;;;;;;;;;4178731;34;20125;-67
2022/07/09 11:04:50;;;;;;;8.73;5.12;;;;;;;;;;4178692;34;20129;-67
2022/07/09 11:07:21;;;;;;;19.45;5.70;;;;;;;;;;4166055;34;20202;-67
2022/07/09 11:09:47;;;;;;;12.10;6.78;;;;;;;;;;4178568;34;20103;-67
2022/07/09 11:12:20;;;;;;;17.42;6.70;;;;;;;;;;4165962;34;20126;-67
2022/07/09 11:14:47;;;;;;;12.40;6.28;;;;;;;;;;4165966;34;20110;-67
2022/07/09 11:17:20;;;;;;;19.15;6.65;;;;;;;;;;4178633;34;20437;-68
2022/07/09 11:19:47;;;;;;;16.23;5.68;;;;;;;;;;4178614;34;20134;-67
2022/07/09 11:22:15;;;;;;;16.48;6.15;;;;;;;;;;4178628;34;20446;-67
2022/07/09 11:24:41;;;;;;;13.90;6.40;;;;;;;;;;4178489;34;20149;-66
2022/07/09 11:27:08;;;;;;;14.55;6.03;;;;;;;;;;4165814;34;20196;-66
2022/07/09 11:29:37;;;;;;;13.85;7.40;;;;;;;;;;4178475;34;20111;-68
2022/07/09 11:32:03;;;;;;;13.20;7.25;;;;;;;;;;4165889;34;20094;-68
2022/07/09 11:34:29;;;;;;;21.17;7.97;;;;;;;;;;4178315;34;20554;-69
2022/07/09 11:36:57;;;;;;;22.92;10.07;;;;;;;;;;4178524;34;20209;-67
2022/07/09 11:39:27;;;;;;;22.58;11.05;;;;;;;;;;4178454;34;20113;-67
2022/07/09 11:41:54;;;;;;;58.53;16.65;;;;;;;;;;4178198;34;20451;-67
2022/07/09 11:44:33;;;;;;;60.47;18.52;;;;;;;;;;4165953;34;20106;-67
2022/07/09 11:47:09;;;;;;;57.38;18.25;;;;;;;;;;4178392;34;20560;-67
2022/07/09 11:49:40;;;;;;;52.70;17.05;;;;;;;;;;4178246;34;20455;-68
2022/07/09 11:52:25;;;;;;;50.58;16.58;;;;;;;;;;4178415;34;20106;-68
2022/07/09 11:55:01;;;;;;;43.13;12.82;;;;;;;;;;4178352;34;20127;-68
2022/07/09 11:57:29;;;;;;;39.35;12.13;;;;;;;;;;4165623;34;20664;-66
2022/07/09 11:59:55;;;;;;;35.15;13.13;;;;;;;;;;4165520;34;20106;-68
2022/07/09 12:02:31;;;;;;;45.78;14.50;;;;;;;;;;4178213;34;20234;-68
2022/07/09 12:04:58;;;;;;;58.83;16.45;;;;;;;;;;4178415;34;20118;-68
2022/07/09 12:07:24;;;;;;;48.28;15.55;;;;;;;;;;4165470;34;20124;-68
2022/07/09 12:10:07;;;;;;;32.00;12.57;;;;;;;;;;4178339;34;20103;-67
2022/07/09 12:12:34;;;;;;;40.88;13.90;;;;;;;;;;4178085;34;20119;-68
2022/07/09 12:15:00;;;;;;;32.95;14.38;;;;;;;;;;4165543;34;20114;-68
2022/07/09 12:17:28;;;;;;;36.35;14.48;;;;;;;;;;4165339;34;20471;-68
2022/07/09 12:19:54;;;;;;;34.35;14.25;;;;;;;;;;4165609;34;20117;-68
2022/07/09 12:22:23;;;;;;;15.18;7.87;;;;;;;;;;4178093;34;20518;-68
2022/07/09 12:24:50;;;;;;;19.58;8.57;;;;;;;;;;4178183;34;20121;-68
2022/07/09 12:27:16;;;;;;;12.32;6.45;;;;;;;;;;4178324;34;20103;-68
2022/07/09 12:29:42;;;;;;;8.63;5.95;;;;;;;;;;4178108;34;20210;-68
2022/07/09 12:32:08;;;;;;;13.23;6.70;;;;;;;;;;4178060;34;20209;-68
2022/07/09 12:34:35;;;;;;;9.20;5.95;;;;;;;;;;4177748;34;20503;-68
2022/07/09 12:37:01;;;;;;;11.20;7.97;;;;;;;;;;4177993;34;20198;-68
2022/07/09 12:39:27;;;;;;;18.27;10.45;;;;;;;;;;4177813;34;20111;-68
2022/07/09 12:41:53;;;;;;;22.25;12.48;;;;;;;;;;4177971;34;20144;-68
2022/07/09 12:44:19;;;;;;;27.20;13.35;;;;;;;;;;4177929;34;20109;-68
2022/07/09 12:46:45;;;;;;;21.42;12.68;;;;;;;;;;4165165;34;20137;-68
2022/07/09 12:49:11;;;;;;;23.65;12.98;;;;;;;;;;4153677;34;20492;-68
2022/07/09 12:51:37;;;;;;;21.55;11.75;;;;;;;;;;4177830;34;20209;-68
2022/07/09 12:54:03;;;;;;;14.05;6.97;;;;;;;;;;4177163;34;20460;-67
2022/07/09 12:56:29;;;;;;;13.52;8.90;;;;;;;;;;4177784;34;20179;-67
2022/07/09 12:58:55;;;;;;;11.70;7.15;;;;;;;;;;4165182;34;20122;-68
2022/07/09 13:01:21;;;;;;;21.83;8.57;;;;;;;;;;4177780;34;20198;-68
2022/07/09 13:03:47;;;;;;;17.23;7.80;;;;;;;;;;4177881;34;20230;-68
2022/07/09 13:06:31;;;;;;;23.87;7.85;;;;;;;;;;4177937;34;20221;-68
2022/07/09 13:08:58;;;;;;;9.60;5.18;;;;;;;;;;4167065;34;20448;-68
2022/07/09 13:11:24;;;;;;;14.27;7.72;;;;;;;;;;4177586;34;20122;-68
2022/07/09 13:13:50;;;;;;;11.38;7.25;;;;;;;;;;4177709;34;20106;-68
2022/07/09 13:16:16;;;;;;;1.62;1.52;;;;;;;;;;4165130;34;20474;-68
2022/07/09 13:18:42;;;;;;;11.07;6.20;;;;;;;;;;4177643;34;20566;-68
2022/07/09 13:21:09;;;;;;;9.60;6.85;;;;;;;;;;4177509;34;20134;-67
2022/07/09 13:23:35;;;;;;;14.18;8.65;;;;;;;;;;4177433;34;20133;-67
2022/07/09 13:26:01;;;;;;;12.48;7.37;;;;;;;;;;4177733;34;20122;-67
2022/07/09 13:28:27;;;;;;;14.70;8.52;;;;;;;;;;4164711;34;20153;-66
2022/07/09 13:30:53;;;;;;;17.33;9.32;;;;;;;;;;4177710;34;20138;-68
2022/07/09 13:33:19;;;;;;;23.15;9.50;;;;;;;;;;4177635;34;20136;-68
2022/07/09 13:35:45;;;;;;;18.58;10.32;;;;;;;;;;4177314;34;20531;-69
2022/07/09 13:38:11;;;;;;;28.60;11.43;;;;;;;;;;4164616;34;20106;-68
2022/07/09 13:40:37;;;;;;;23.75;10.77;;;;;;;;;;4177679;34;20586;-68
2022/07/09 13:43:03;;;;;;;17.42;9.63;;;;;;;;;;4177313;34;20136;-68
2022/07/09 13:45:29;;;;;;;1.42;1.37;;;;;;;;;;4164706;34;20198;-68
2022/07/09 13:47:55;;;;;;;23.87;8.02;;;;;;;;;;4177249;34;20129;-68
2022/07/09 13:50:21;;;;;;;40.20;13.10;;;;;;;;;;4164861;34;20129;-68
2022/07/09 13:52:48;;;;;;;36.28;11.80;;;;;;;;;;4177312;34;20126;-69
2022/07/09 13:55:14;;;;;;;35.20;10.68;;;;;;;;;;4177528;34;20122;-68
2022/07/09 13:57:40;;;;;;;20.50;8.00;;;;;;;;;;4177339;34;20122;-68
2022/07/09 14:00:07;;;;;;;20.85;8.02;;;;;;;;;;4177541;34;20541;-68
2022/07/09 14:02:33;;;;;;;12.40;7.40;;;;;;;;;;4177459;34;20545;-67
2022/07/09 14:05:00;;;;;;;12.70;6.35;;;;;;;;;;4164409;34;20130;-67
2022/07/09 14:07:26;;;;;;;10.23;7.00;;;;;;;;;;4164535;34;20265;-68
2022/07/09 14:09:52;;;;;;;17.02;7.47;;;;;;;;;;4177157;34;20180;-68
2022/07/09 14:12:18;;;;;;;10.82;5.62;;;;;;;;;;4177061;34;20688;-67
2022/07/09 14:14:44;;;;;;;13.50;6.60;;;;;;;;;;4177230;34;20530;-68
2022/07/09 14:17:10;;;;;;;18.17;7.07;;;;;;;;;;4177122;34;20129;-68
2022/07/09 14:19:37;;;;;;;10.15;6.45;;;;;;;;;;4177318;34;20126;-68
2022/07/09 14:22:03;;;;;;;14.05;5.80;;;;;;;;;;4177062;34;20121;-66
2022/07/09 14:24:29;;;;;;;11.50;7.18;;;;;;;;;;4176964;34;20122;-68
2022/07/09 14:26:55;;;;;;;15.88;7.32;;;;;;;;;;4176949;34;20118;-68
2022/07/09 14:29:21;;;;;;;7.68;6.10;;;;;;;;;;4176726;34;20217;-68
2022/07/09 14:31:47;;;;;;;10.82;7.35;;;;;;;;;;4176965;34;20146;-68
2022/07/09 14:34:13;;;;;;;9.98;6.93;;;;;;;;;;4176860;34;20122;-68
2022/07/09 14:36:39;;;;;;;9.68;6.05;;;;;;;;;;4176897;34;20205;-66
2022/07/09 14:39:05;;;;;;;9.73;6.53;;;;;;;;;;4176935;34;20648;-67
2022/07/09 14:41:32;;;;;;;14.90;7.62;;;;;;;;;;4176916;34;20114;-67
2022/07/09 14:43:58;;;;;;;14.05;6.85;;;;;;;;;;4176581;34;20142;-69
2022/07/09 14:46:25;;;;;;;10.30;7.30;;;;;;;;;;4176997;34;20103;-68
2022/07/09 14:48:51;;;;;;;8.13;6.03;;;;;;;;;;4176685;34;20095;-67
2022/07/09 14:51:17;;;;;;;12.75;7.15;;;;;;;;;;4176991;34;20547;-67
2022/07/09 14:53:43;;;;;;;10.68;7.20;;;;;;;;;;4176551;34;20618;-67
2022/07/09 14:56:09;;;;;;;9.57;6.80;;;;;;;;;;4163938;34;20557;-67
2022/07/09 14:58:35;;;;;;;14.85;6.72;;;;;;;;;;4164051;34;20561;-67
2022/07/09 15:01:01;;;;;;;11.65;6.47;;;;;;;;;;4176927;34;20133;-67
2022/07/09 15:03:27;;;;;;;10.00;7.20;;;;;;;;;;4176536;34;20187;-67
2022/07/09 15:05:53;;;;;;;17.27;7.70;;;;;;;;;;4176825;34;20126;-67